Time;durP1;ratioP1;P1;durP2;ratioP2;P2;SDS_P1;SDS_P2;PMS_P1;PMS_P2;Temp;Humidity;BMP_temperature;BMP_pressure;BME280_temperature;BME280_humidity;BME280_pressure;Samples;Min_cycle;Max_cycle;Signal;HPM_P1;HPM_P2
2022/07/19 00:00:49;;;;;;;4.38;3.50;;;13.10;99.90;;;;;;5052454;28;20040;-72
2022/07/19 00:03:16;;;;;;;5.63;3.58;;;13.10;99.90;;;;;;5052579;28;20143;-79
2022/07/19 00:05:43;;;;;;;7.68;3.45;;;13.10;99.90;;;;;;5052662;28;20165;-78
2022/07/19 00:08:10;;;;;;;3.30;3.00;;;13.10;99.90;;;;;;5052509;28;20048;-72
2022/07/19 00:10:36;;;;;;;3.95;3.53;;;13.00;99.90;;;;;;5052499;28;20021;-73
2022/07/19 00:13:02;;;;;;;4.35;3.63;;;13.00;99.90;;;;;;5052339;28;20388;-78
2022/07/19 00:15:28;;;;;;;4.82;3.40;;;13.00;99.90;;;;;;5052364;28;20021;-73
2022/07/19 00:17:53;;;;;;;5.78;3.60;;;12.90;99.90;;;;;;5052295;28;20044;-72
2022/07/19 00:20:21;;;;;;;4.65;4.03;;;13.00;99.90;;;;;;5050956;28;20120;-73
2022/07/19 00:22:47;;;;;;;6.28;3.50;;;13.00;99.90;;;;;;5050326;28;20013;-73
2022/07/19 00:25:13;;;;;;;5.57;3.78;;;13.00;99.90;;;;;;5052185;28;20147;-72
2022/07/19 00:27:40;;;;;;;7.70;4.30;;;13.00;99.90;;;;;;5050822;28;20086;-79
2022/07/19 00:30:07;;;;;;;4.45;4.00;;;12.90;99.90;;;;;;5052110;28;20014;-80
2022/07/19 00:32:33;;;;;;;4.18;3.53;;;12.90;99.90;;;;;;5052082;28;20052;-72
2022/07/19 00:34:59;;;;;;;5.10;3.95;;;12.80;99.90;;;;;;5052041;28;20068;-78
2022/07/19 00:37:24;;;;;;;4.93;4.07;;;12.80;99.90;;;;;;5051979;28;20415;-79
2022/07/19 00:39:50;;;;;;;5.38;3.92;;;12.90;99.90;;;;;;5051750;28;20029;-79
2022/07/19 00:42:17;;;;;;;4.60;4.18;;;12.90;99.90;;;;;;5051934;28;20029;-79
2022/07/19 00:44:43;;;;;;;5.97;4.00;;;12.90;99.90;;;;;;5051839;28;20473;-80
2022/07/19 00:47:09;;;;;;;4.57;3.92;;;13.00;99.90;;;;;;5050662;28;20116;-80
2022/07/19 00:49:34;;;;;;;6.47;3.28;;;13.00;99.90;;;;;;5050492;28;20389;-79
2022/07/19 00:52:03;;;;;;;4.93;4.43;;;13.00;99.90;;;;;;5051744;28;20033;-79
2022/07/19 00:54:30;;;;;;;4.25;3.50;;;13.00;99.90;;;;;;5050504;28;20393;-79
2022/07/19 00:56:58;;;;;;;4.03;3.63;;;13.00;99.90;;;;;;5051764;28;20021;-72
2022/07/19 00:59:26;;;;;;;4.28;3.55;;;13.00;99.90;;;;;;5047979;28;20021;-80
2022/07/19 01:01:52;;;;;;;4.00;3.60;;;13.00;99.90;;;;;;5048262;27;20120;-72
2022/07/19 01:04:19;;;;;;;4.80;3.58;;;13.10;99.90;;;;;;5050421;28;20470;-79
2022/07/19 01:06:45;;;;;;;4.03;3.63;;;13.10;99.90;;;;;;5050260;28;20033;-72
2022/07/19 01:09:10;;;;;;;4.00;3.70;;;13.10;99.90;;;;;;5051599;28;20025;-79
2022/07/19 01:11:38;;;;;;;4.03;3.58;;;13.10;99.90;;;;;;5051436;28;20029;-72
2022/07/19 01:14:03;;;;;;;6.65;4.18;;;13.00;99.90;;;;;;5050162;28;20112;-73
2022/07/19 01:16:29;;;;;;;4.85;3.78;;;13.00;99.90;;;;;;5051551;28;20121;-78
2022/07/19 01:18:55;;;;;;;4.30;3.97;;;13.00;99.90;;;;;;5051422;28;20031;-79
2022/07/19 01:21:22;;;;;;;4.60;4.05;;;13.10;99.90;;;;;;5051166;28;20041;-72
2022/07/19 01:23:48;;;;;;;4.47;4.07;;;13.10;99.90;;;;;;5050062;28;20028;-73
2022/07/19 01:26:15;;;;;;;4.28;3.88;;;13.10;99.90;;;;;;5051396;28;20108;-78
2022/07/19 01:28:41;;;;;;;5.57;4.05;;;13.10;99.90;;;;;;5051444;28;20505;-73
2022/07/19 01:31:07;;;;;;;5.40;3.92;;;13.10;99.90;;;;;;5051137;28;20033;-79
2022/07/19 01:33:39;;;;;;;5.90;4.20;;;13.10;99.90;;;;;;5050010;28;20478;-78
2022/07/19 01:36:05;;;;;;;7.95;4.25;;;13.10;99.90;;;;;;5050250;28;20073;-77
2022/07/19 01:38:30;;;;;;;5.00;4.50;;;13.10;99.90;;;;;;5051126;28;20031;-78
2022/07/19 01:40:58;;;;;;;6.10;4.22;;;13.10;99.90;;;;;;5050830;28;20147;-72
2022/07/19 01:43:24;;;;;;;5.22;3.60;;;13.10;99.90;;;;;;5050983;28;20017;-74
2022/07/19 01:45:50;;;;;;;3.95;3.55;;;13.20;99.90;;;;;;5050937;28;20032;-78
2022/07/19 01:48:16;;;;;;;4.03;3.63;;;13.20;99.90;;;;;;5049675;28;20376;-73
2022/07/19 01:50:42;;;;;;;6.60;3.80;;;13.30;99.90;;;;;;5050861;28;20025;-78
2022/07/19 01:53:07;;;;;;;4.22;3.83;;;13.30;99.90;;;;;;5050953;28;20025;-73
2022/07/19 01:55:33;;;;;;;4.82;3.90;;;13.30;99.90;;;;;;5049393;28;20021;-79
2022/07/19 01:57:59;;;;;;;5.32;3.97;;;13.30;99.90;;;;;;5050895;28;20359;-72
2022/07/19 02:00:24;;;;;;;8.80;4.50;;;13.30;99.90;;;;;;5050570;28;20037;-73
2022/07/19 02:02:50;;;;;;;7.82;4.00;;;13.30;99.90;;;;;;5050736;28;20078;-73
2022/07/19 02:05:16;;;;;;;5.45;4.47;;;13.30;99.90;;;;;;5050627;28;20496;-78
2022/07/19 02:07:41;;;;;;;5.78;3.92;;;13.30;99.90;;;;;;5050469;28;20041;-73
2022/07/19 02:10:08;;;;;;;5.28;4.15;;;13.30;99.90;;;;;;5050558;28;20028;-73
2022/07/19 02:12:34;;;;;;;4.25;3.80;;;13.30;99.90;;;;;;5049289;28;20021;-78
2022/07/19 02:14:59;;;;;;;5.10;4.13;;;13.30;99.90;;;;;;5050666;28;20017;-79
2022/07/19 02:17:25;;;;;;;5.32;4.40;;;13.40;99.90;;;;;;5050392;28;20474;-72
2022/07/19 02:19:51;;;;;;;6.90;4.28;;;13.30;99.90;;;;;;5050183;28;20033;-78
2022/07/19 02:22:16;;;;;;;4.60;4.20;;;13.30;99.90;;;;;;5049177;28;20040;-79
2022/07/19 02:24:42;;;;;;;6.05;4.82;;;13.30;99.90;;;;;;5050425;28;20100;-72
2022/07/19 02:27:10;;;;;;;4.32;3.92;;;13.30;99.90;;;;;;5050261;28;20027;-79
2022/07/19 02:29:36;;;;;;;6.22;4.35;;;13.40;99.90;;;;;;5050218;28;20031;-72
2022/07/19 02:32:01;;;;;;;5.05;3.78;;;13.40;99.90;;;;;;5050241;28;20419;-72
2022/07/19 02:34:27;;;;;;;4.57;3.47;;;13.40;99.90;;;;;;5050356;28;20021;-78
2022/07/19 02:36:53;;;;;;;4.50;4.10;;;13.40;99.90;;;;;;5050229;28;20469;-79
2022/07/19 02:39:18;;;;;;;4.60;3.47;;;13.40;99.90;;;;;;5050201;28;20474;-74
2022/07/19 02:41:44;;;;;;;6.47;4.40;;;13.40;99.90;;;;;;5049977;28;20435;-78
2022/07/19 02:44:10;;;;;;;5.35;4.15;;;13.40;99.90;;;;;;5050265;28;20028;-73
2022/07/19 02:46:36;;;;;;;4.50;4.07;;;13.40;99.90;;;;;;5049981;28;20481;-72
2022/07/19 02:49:02;;;;;;;5.03;4.15;;;13.40;99.90;;;;;;5050187;28;20021;-73
2022/07/19 02:51:27;;;;;;;4.85;4.22;;;13.40;99.90;;;;;;5048617;28;20069;-79
2022/07/19 02:53:53;;;;;;;4.80;4.25;;;13.40;99.90;;;;;;5050051;28;20035;-79
2022/07/19 02:56:19;;;;;;;4.45;4.07;;;13.40;99.90;;;;;;5050094;28;20034;-72
2022/07/19 02:58:44;;;;;;;4.38;3.95;;;13.30;99.90;;;;;;5048844;28;20389;-73
2022/07/19 03:01:10;;;;;;;4.28;3.80;;;13.30;99.90;;;;;;5049636;28;20039;-72
2022/07/19 03:03:46;;;;;;;4.75;4.07;;;13.30;99.90;;;;;;5049831;28;20040;-78
2022/07/19 03:06:14;;;;;;;5.20;4.30;;;13.30;99.90;;;;;;5049789;28;20391;-72
2022/07/19 03:08:39;;;;;;;8.60;4.90;;;13.40;99.90;;;;;;5050036;28;20025;-72
2022/07/19 03:11:05;;;;;;;4.70;4.15;;;13.40;99.90;;;;;;5049743;28;20043;-72
2022/07/19 03:13:31;;;;;;;4.30;3.65;;;13.40;99.90;;;;;;5048528;28;20153;-79
2022/07/19 03:15:57;;;;;;;4.68;3.90;;;13.40;99.90;;;;;;5049677;28;20029;-79
2022/07/19 03:18:22;;;;;;;5.30;3.97;;;13.40;99.90;;;;;;5049839;28;20486;-79
2022/07/19 03:20:48;;;;;;;3.95;3.45;;;13.40;99.90;;;;;;5048335;28;20128;-79
2022/07/19 03:23:14;;;;;;;4.22;3.90;;;13.40;99.90;;;;;;5049800;28;20025;-78
2022/07/19 03:25:39;;;;;;;13.18;5.07;;;13.50;99.90;;;;;;5049567;28;20026;-78
2022/07/19 03:28:05;;;;;;;4.93;4.43;;;13.50;99.90;;;;;;5048354;28;20018;-72
2022/07/19 03:30:34;;;;;;;5.63;4.30;;;13.60;99.90;;;;;;5049577;28;20029;-73
2022/07/19 03:32:59;;;;;;;4.25;3.95;;;13.60;99.90;;;;;;5049475;28;20021;-78
2022/07/19 03:35:25;;;;;;;6.47;4.28;;;13.70;99.90;;;;;;5049459;28;20074;-79
2022/07/19 03:37:51;;;;;;;4.88;4.38;;;13.60;99.90;;;;;;5048156;28;20029;-73
2022/07/19 03:40:17;;;;;;;4.47;4.18;;;13.60;99.90;;;;;;5049443;28;20037;-73
2022/07/19 03:42:43;;;;;;;6.88;4.35;;;13.60;99.90;;;;;;5049460;28;20104;-72
2022/07/19 03:45:09;;;;;;;6.25;5.20;;;13.70;99.90;;;;;;5049611;28;20096;-78
2022/07/19 03:47:35;;;;;;;4.22;3.83;;;13.70;99.90;;;;;;5049229;28;20040;-73
2022/07/19 03:50:01;;;;;;;5.05;4.50;;;13.80;99.90;;;;;;5049568;28;20029;-78
2022/07/19 03:52:27;;;;;;;6.82;3.95;;;14.00;99.90;;;;;;5049333;28;20138;-78
2022/07/19 03:54:52;;;;;;;6.38;4.18;;;14.20;99.90;;;;;;5048054;28;20497;-79
2022/07/19 03:57:18;;;;;;;6.55;4.10;;;14.40;99.90;;;;;;5049219;28;20029;-79
2022/07/19 03:59:44;;;;;;;4.28;3.88;;;14.60;99.90;;;;;;5052117;28;20025;-79
2022/07/19 04:02:09;;;;;;;6.47;3.88;;;14.80;99.90;;;;;;5052527;28;20104;-73
2022/07/19 04:04:35;;;;;;;5.85;4.03;;;14.80;99.90;;;;;;5052764;28;20025;-78
2022/07/19 04:07:01;;;;;;;5.65;3.90;;;14.90;99.90;;;;;;5051188;28;20053;-73
2022/07/19 04:09:27;;;;;;;8.45;4.55;;;14.90;99.90;;;;;;5052325;28;20021;-74
2022/07/19 04:11:53;;;;;;;4.78;4.20;;;14.90;99.90;;;;;;5051124;28;20551;-79
2022/07/19 04:14:19;;;;;;;5.53;3.60;;;14.90;99.90;;;;;;5051249;28;20483;-78
2022/07/19 04:16:44;;;;;;;7.35;4.43;;;14.90;99.90;;;;;;5052374;28;20029;-72
2022/07/19 04:19:10;;;;;;;9.93;4.85;;;14.90;99.90;;;;;;5052569;28;20021;-79
2022/07/19 04:21:36;;;;;;;4.53;3.72;;;14.90;99.90;;;;;;5052055;28;20064;-78
2022/07/19 04:24:01;;;;;;;4.88;4.10;;;15.00;99.90;;;;;;5052349;28;20021;-74
2022/07/19 04:26:27;;;;;;;5.20;3.97;;;15.00;99.90;;;;;;5052343;28;20029;-73
2022/07/19 04:28:53;;;;;;;5.28;4.65;;;15.00;99.90;;;;;;5050834;28;20104;-73
2022/07/19 04:31:18;;;;;;;7.07;4.55;;;15.10;99.90;;;;;;5050729;28;20085;-77
2022/07/19 04:33:44;;;;;;;7.43;4.90;;;15.10;99.90;;;;;;5052184;28;20029;-74
2022/07/19 04:36:10;;;;;;;7.95;4.50;;;15.20;99.90;;;;;;5050776;28;20029;-72
2022/07/19 04:38:35;;;;;;;6.88;4.18;;;15.20;99.90;;;;;;5051983;28;20101;-73
2022/07/19 04:41:01;;;;;;;6.93;5.78;;;15.40;99.90;;;;;;5050570;28;20481;-73
2022/07/19 04:43:27;;;;;;;10.05;5.20;;;15.50;99.90;;;;;;5050650;28;20462;-79
2022/07/19 04:45:53;;;;;;;9.57;4.15;;;15.50;99.90;;;;;;5052074;28;20036;-74
2022/07/19 04:48:18;;;;;;;7.57;4.43;;;15.60;99.90;;;;;;5050558;28;20419;-73
2022/07/19 04:50:44;;;;;;;5.00;4.50;;;15.70;99.90;;;;;;5051777;28;20470;-79
2022/07/19 04:53:10;;;;;;;6.20;4.65;;;15.80;99.90;;;;;;5050389;28;20473;-79
2022/07/19 04:55:38;;;;;;;5.72;4.93;;;16.00;99.90;;;;;;5051706;28;20029;-79
2022/07/19 04:58:04;;;;;;;5.45;4.22;;;16.10;99.90;;;;;;5051787;28;20032;-72
2022/07/19 05:00:30;;;;;;;6.15;4.43;;;16.20;99.90;;;;;;5051587;28;20030;-74
2022/07/19 05:02:56;;;;;;;4.70;4.20;;;16.30;99.90;;;;;;5051475;28;20091;-79
2022/07/19 05:05:23;;;;;;;7.53;5.63;;;16.50;99.90;;;;;;5051559;28;20077;-73
2022/07/19 05:07:49;;;;;;;8.35;6.20;;;16.70;99.90;;;;;;5050234;28;20079;-73
2022/07/19 05:10:15;;;;;;;9.75;6.70;;;16.70;99.90;;;;;;5050279;28;20028;-78
2022/07/19 05:12:41;;;;;;;8.77;6.60;;;16.80;99.90;;;;;;5051468;28;20490;-72
2022/07/19 05:15:08;;;;;;;12.25;7.93;;;16.90;99.90;;;;;;5051477;28;20503;-73
2022/07/19 05:17:34;;;;;;;13.20;7.95;;;17.00;99.90;;;;;;5051197;28;20505;-80
2022/07/19 05:19:59;;;;;;;8.50;6.75;;;17.10;99.90;;;;;;5050043;28;20021;-73
2022/07/19 05:22:25;;;;;;;10.45;8.32;;;17.20;99.90;;;;;;5049801;28;20052;-79
2022/07/19 05:24:52;;;;;;;12.50;10.02;;;17.40;99.90;;;;;;5050088;28;20033;-74
2022/07/19 05:27:19;;;;;;;13.27;9.25;;;17.50;99.90;;;;;;5051608;27;20029;-73
2022/07/19 05:29:44;;;;;;;11.82;8.43;;;17.70;99.90;;;;;;5050227;27;20394;-73
2022/07/19 05:32:10;;;;;;;11.80;7.28;;;18.00;99.90;;;;;;5089892;27;20035;-73
2022/07/19 05:34:36;;;;;;;7.35;5.53;;;18.20;99.90;;;;;;5096709;27;20536;-74
2022/07/19 05:37:02;;;;;;;13.52;6.25;;;18.30;99.90;;;;;;5059096;27;20027;-72
2022/07/19 05:39:27;;;;;;;7.50;5.10;;;18.40;84.40;;;;;;5059356;27;20542;-73
2022/07/19 05:41:53;;;;;;;11.95;5.85;;;18.60;78.20;;;;;;5050151;28;20037;-72
2022/07/19 05:44:19;;;;;;;14.50;6.55;;;18.80;73.40;;;;;;5050167;28;20062;-74
2022/07/19 05:46:44;;;;;;;11.55;6.68;;;19.10;73.10;;;;;;5133220;27;20496;-73
2022/07/19 05:49:11;;;;;;;12.75;6.75;;;19.20;74.10;;;;;;5134867;27;20023;-79
2022/07/19 05:51:37;;;;;;;19.27;7.28;;;19.20;76.00;;;;;;5134832;27;20069;-80
2022/07/19 05:54:04;;;;;;;13.20;7.15;;;19.30;77.00;;;;;;5135719;27;20135;-74
2022/07/19 05:56:30;;;;;;;13.98;6.65;;;19.50;77.90;;;;;;5153500;27;20067;-73
2022/07/19 05:58:57;;;;;;;15.90;7.00;;;19.60;78.60;;;;;;5155450;27;20068;-72
2022/07/19 06:01:23;;;;;;;24.05;9.60;;;19.60;75.20;;;;;;5146006;27;20102;-72
2022/07/19 06:03:54;;;;;;;19.40;8.63;;;19.70;74.80;;;;;;5151317;27;20019;-79
2022/07/19 06:06:21;;;;;;;24.15;8.48;;;19.70;74.90;;;;;;5152445;27;20023;-73
2022/07/19 06:08:48;;;;;;;21.67;8.95;;;19.80;75.40;;;;;;5152708;27;20519;-73
2022/07/19 06:11:15;;;;;;;19.10;8.18;;;19.80;74.70;;;;;;5145421;27;20021;-79
2022/07/19 06:13:42;;;;;;;19.90;8.25;;;20.10;77.60;;;;;;5050243;28;20021;-73
2022/07/19 06:16:09;;;;;;;23.27;8.95;;;20.20;74.80;;;;;;5049106;28;20032;-73
2022/07/19 06:18:35;;;;;;;21.27;9.07;;;20.30;76.90;;;;;;5047404;28;20385;-73
2022/07/19 06:21:03;;;;;;;24.95;9.43;;;20.40;74.90;;;;;;5049138;28;20456;-80
2022/07/19 06:23:29;;;;;;;22.10;8.60;;;20.50;72.80;;;;;;5050156;28;20105;-73
2022/07/19 06:25:55;;;;;;;16.55;8.07;;;20.60;73.70;;;;;;5050275;28;20108;-73
2022/07/19 06:28:20;;;;;;;17.33;7.32;;;20.60;73.30;;;;;;5050358;28;20025;-73
2022/07/19 06:30:46;;;;;;;18.80;7.63;;;20.70;72.40;;;;;;5050226;28;20390;-79
2022/07/19 06:33:12;;;;;;;13.40;7.35;;;20.70;71.60;;;;;;5048856;28;20029;-80
2022/07/19 06:35:40;;;;;;;14.57;7.25;;;20.80;71.20;;;;;;5048668;28;20074;-80
2022/07/19 06:38:05;;;;;;;17.38;7.70;;;20.90;70.90;;;;;;5050160;28;20021;-78
2022/07/19 06:40:31;;;;;;;20.30;7.57;;;21.00;69.70;;;;;;5049201;28;20037;-78
2022/07/19 06:42:57;;;;;;;13.77;7.50;;;21.10;71.00;;;;;;5049957;28;20485;-78
2022/07/19 06:45:22;;;;;;;14.73;6.75;;;21.20;70.00;;;;;;5049840;28;20065;-78
2022/07/19 06:47:50;;;;;;;16.10;7.07;;;21.10;70.60;;;;;;5048731;28;20033;-78
2022/07/19 06:50:16;;;;;;;13.82;6.90;;;21.20;70.20;;;;;;5049869;28;20033;-78
2022/07/19 06:52:41;;;;;;;14.68;7.55;;;21.20;69.70;;;;;;5049843;28;20021;-78
2022/07/19 06:55:07;;;;;;;11.73;6.22;;;21.20;68.10;;;;;;5050123;28;20100;-78
2022/07/19 08:21:45;;;;;;;7.35;3.75;;;25.00;55.60;;;;;;5035814;28;20413;-73
2022/07/19 08:24:11;;;;;;;8.20;3.80;;;24.90;56.40;;;;;;5052339;28;20037;-77
2022/07/19 08:26:39;;;;;;;8.63;4.00;;;24.90;57.00;;;;;;5052482;28;20375;-77
2022/07/19 08:29:05;;;;;;;8.13;4.22;;;24.80;56.30;;;;;;5050707;28;20052;-77
2022/07/19 08:31:31;;;;;;;5.00;4.10;;;24.80;56.10;;;;;;5051952;28;20063;-77
2022/07/19 08:33:58;;;;;;;10.65;4.45;;;24.80;55.70;;;;;;5052282;28;20044;-73
2022/07/19 08:36:24;;;;;;;7.50;4.10;;;25.00;56.90;;;;;;5034060;28;20116;-78
2022/07/19 08:38:52;;;;;;;9.18;4.72;;;25.20;54.70;;;;;;5052058;28;20100;-77
2022/07/19 08:41:19;;;;;;;8.05;4.20;;;25.40;54.40;;;;;;5050610;28;20116;-77
2022/07/19 08:43:51;;;;;;;8.50;4.47;;;25.60;53.30;;;;;;5051654;28;20025;-73
2022/07/19 08:46:23;;;;;;;;;;;25.80;53.30;;;;;;5051597;28;20064;-73
2022/07/19 08:48:49;;;;;;;7.00;3.57;;;25.80;51.50;;;;;;5048821;28;19912;-80
2022/07/19 08:51:20;;;;;;;6.90;3.72;;;26.10;52.00;;;;;;5050269;28;20260;-80
2022/07/19 08:53:46;;;;;;;6.80;3.55;;;26.20;51.60;;;;;;5050501;28;20107;-73
2022/07/19 08:58:57;;;;;;;9.45;3.63;;;26.80;49.80;;;;;;5052337;28;20085;-73
2022/07/19 09:01:36;;;;;;;5.03;3.00;;;26.70;48.90;;;;;;5144912;27;20391;-73
2022/07/19 09:04:16;;;;;;;9.02;4.50;;;26.90;50.00;;;;;;5156927;27;20023;-80
2022/07/19 09:06:48;;;;;;;5.63;3.85;;;27.00;49.40;;;;;;5155126;27;20019;-73
2022/07/19 09:09:29;;;;;;;8.07;4.20;;;27.10;49.60;;;;;;5156436;27;20019;-73
2022/07/19 09:12:00;;;;;;;7.18;3.67;;;27.00;49.60;;;;;;5155139;27;20035;-73
2022/07/19 09:14:29;;;;;;;9.73;4.15;;;27.10;50.50;;;;;;5154657;27;20015;-77
2022/07/19 09:17:16;;;;;;;5.43;4.25;;;27.40;49.60;;;;;;5155087;27;20392;-77
2022/07/19 09:19:44;;;;;;;7.90;4.85;;;27.50;49.90;;;;;;5156238;27;20058;-77
2022/07/19 09:22:18;;;;;;;9.07;3.65;;;27.50;48.50;;;;;;5155606;27;20051;-77
2022/07/19 09:24:49;;;;;;;6.90;3.85;;;27.50;47.80;;;;;;5154955;27;20023;-77
2022/07/19 09:27:19;;;;;;;7.70;3.67;;;27.50;47.80;;;;;;5154837;27;20439;-77
2022/07/19 09:29:48;;;;;;;9.15;3.50;;;27.30;46.80;;;;;;5155903;27;20015;-74
2022/07/19 09:32:20;;;;;;;7.93;3.92;;;27.30;47.00;;;;;;5154706;27;20023;-77
2022/07/19 09:34:49;;;;;;;4.90;2.80;;;27.20;45.50;;;;;;5112103;27;20041;-72
2022/07/19 09:37:18;;;;;;;5.05;2.58;;;27.10;45.80;;;;;;5049722;28;20085;-78
2022/07/19 09:39:50;;;;;;;6.88;3.42;;;27.20;46.00;;;;;;5050290;28;20037;-77
2022/07/19 09:42:37;;;;;;;6.25;3.50;;;27.30;47.20;;;;;;5051094;28;20486;-77
2022/07/19 09:45:08;;;;;;;5.50;3.50;;;27.30;47.40;;;;;;5050284;28;20382;-78
2022/07/19 09:47:42;;;;;;;8.25;4.10;;;27.20;47.10;;;;;;5051139;28;20411;-78
2022/07/19 09:50:16;;;;;;;6.60;3.80;;;27.30;45.50;;;;;;5050925;28;20017;-78
2022/07/19 09:52:46;;;;;;;7.32;3.60;;;27.50;46.60;;;;;;5049794;28;20025;-77
2022/07/19 09:55:16;;;;;;;9.82;4.00;;;27.60;45.20;;;;;;5049462;28;20144;-78
2022/07/19 09:57:45;;;;;;;6.00;3.58;;;27.60;46.00;;;;;;5032551;28;20033;-73
2022/07/19 10:00:12;;;;;;;7.82;3.53;;;27.70;45.70;;;;;;5049596;28;20032;-78
2022/07/19 10:02:49;;;;;;;8.68;3.75;;;27.60;43.30;;;;;;5050663;28;20021;-78
2022/07/19 10:05:15;;;;;;;9.45;4.32;;;27.60;42.20;;;;;;5049423;28;20021;-78
2022/07/19 10:07:42;;;;;;;14.70;5.07;;;27.50;44.50;;;;;;5050692;28;20058;-77
2022/07/19 10:10:15;;;;;;;13.07;4.93;;;27.30;44.40;;;;;;5049694;28;20544;-74
2022/07/19 10:12:50;;;;;;;10.55;4.70;;;27.50;46.00;;;;;;5050409;28;20037;-78
2022/07/19 10:15:18;;;;;;;13.07;5.13;;;27.60;46.30;;;;;;5050544;28;20062;-77
2022/07/19 10:17:47;;;;;;;7.95;5.18;;;27.70;47.60;;;;;;5049264;28;20494;-73
2022/07/19 10:20:18;;;;;;;7.60;4.00;;;27.90;46.60;;;;;;5050488;28;20037;-73
2022/07/19 10:22:50;;;;;;;8.45;4.70;;;28.20;46.00;;;;;;5050016;28;20427;-77
2022/07/19 10:25:17;;;;;;;9.10;4.40;;;28.20;45.60;;;;;;5050177;28;20028;-77
2022/07/19 10:27:51;;;;;;;9.60;4.40;;;28.00;44.00;;;;;;5049030;28;20021;-77
2022/07/19 10:30:23;;;;;;;8.23;4.63;;;27.90;42.50;;;;;;5050523;28;20385;-77
2022/07/19 10:32:56;;;;;;;9.95;4.20;;;27.90;43.50;;;;;;5109462;27;20067;-73
2022/07/19 10:35:38;;;;;;;7.65;3.83;;;27.90;43.80;;;;;;5093732;27;20017;-77
2022/07/19 10:38:06;;;;;;;9.57;3.88;;;28.10;45.50;;;;;;5062071;27;20056;-73
2022/07/19 10:40:50;;;;;;;10.18;4.20;;;28.10;42.90;;;;;;5050111;28;20507;-73
2022/07/19 10:43:23;;;;;;;14.07;4.35;;;28.30;42.60;;;;;;5098160;27;20030;-76
2022/07/19 10:46:04;;;;;;;9.52;3.97;;;28.30;42.80;;;;;;5154909;27;20494;-77
2022/07/19 10:48:49;;;;;;;6.57;4.20;;;28.10;43.70;;;;;;5154904;27;20027;-80
2022/07/19 10:51:33;;;;;;;7.80;4.50;;;28.30;44.80;;;;;;5154670;27;20037;-73
2022/07/19 10:54:08;;;;;;;8.60;3.80;;;28.30;43.10;;;;;;5154818;27;20479;-77
2022/07/19 10:56:58;;;;;;;8.98;3.80;;;28.30;42.10;;;;;;5071148;27;20025;-73
2022/07/19 10:59:33;;;;;;;8.35;3.63;;;28.50;42.90;;;;;;5118737;27;20435;-77
2022/07/19 11:02:02;;;;;;;12.20;3.95;;;28.50;42.00;;;;;;5105236;27;20037;-73
2022/07/19 11:04:32;;;;;;;7.18;4.05;;;28.70;43.50;;;;;;5063537;27;20061;-74
2022/07/19 11:07:23;;;;;;;12.70;4.20;;;28.80;43.90;;;;;;5108713;27;20037;-73
2022/07/19 11:09:55;;;;;;;5.78;3.33;;;28.90;41.90;;;;;;5077983;27;20044;-73
2022/07/19 11:12:20;;;;;;;;;;;29.00;40.80;;;;;;5106854;27;20052;-73
2022/07/19 11:14:47;;;;;;;8.32;4.10;;;28.90;41.00;;;;;;5129114;27;19911;-73
2022/07/19 11:17:15;;;;;;;9.93;4.18;;;29.00;42.50;;;;;;5157795;27;20499;-73
2022/07/19 11:20:07;;;;;;;8.35;4.10;;;29.10;41.90;;;;;;5156421;27;20109;-77
2022/07/19 11:22:44;;;;;;;7.47;3.70;;;29.20;42.00;;;;;;5063378;27;20080;-77
2022/07/19 11:25:12;;;;;;;9.10;3.50;;;29.30;40.80;;;;;;5121095;27;20110;-78
2022/07/19 11:27:43;;;;;;;7.50;3.88;;;29.00;40.10;;;;;;5073744;27;20075;-73
2022/07/19 11:30:10;;;;;;;6.05;3.80;;;29.00;40.80;;;;;;5108110;27;20021;-77
2022/07/19 11:32:41;;;;;;;8.15;3.40;;;28.80;39.80;;;;;;5118550;27;20069;-73
2022/07/19 11:35:09;;;;;;;6.15;3.28;;;28.80;40.10;;;;;;5077070;27;20017;-73
2022/07/19 11:37:38;;;;;;;7.03;3.33;;;29.00;40.40;;;;;;5051311;28;20029;-77
2022/07/19 11:40:06;;;;;;;6.18;3.22;;;28.90;40.30;;;;;;5050023;27;20035;-77
2022/07/19 11:42:40;;;;;;;7.13;3.80;;;28.80;40.40;;;;;;5121626;27;20050;-73
2022/07/19 11:45:16;;;;;;;6.25;3.80;;;29.00;40.50;;;;;;5108261;27;20102;-77
2022/07/19 11:47:47;;;;;;;7.82;3.38;;;29.00;40.60;;;;;;5110841;28;20032;-76
2022/07/19 11:50:15;;;;;;;7.17;3.97;;;29.10;39.60;;;;;;5095307;28;20220;-77
2022/07/19 11:52:43;;;;;;;5.85;3.40;;;29.20;39.80;;;;;;5079041;28;20079;-77
2022/07/19 11:55:10;;;;;;;6.78;3.60;;;29.20;39.80;;;;;;5097090;28;20030;-76
2022/07/19 11:57:38;;;;;;;8.48;3.22;;;29.30;41.20;;;;;;5114485;28;20036;-73
2022/07/19 12:00:07;;;;;;;5.60;3.30;;;29.20;40.70;;;;;;5114095;28;20024;-73
2022/07/19 12:02:51;;;;;;;6.22;3.13;;;29.30;40.10;;;;;;5096817;28;20496;-74
2022/07/19 12:05:17;;;;;;;8.50;3.10;;;29.40;40.10;;;;;;5113985;28;20516;-73
2022/07/19 12:07:50;;;;;;;4.47;2.88;;;29.40;40.50;;;;;;5114124;28;20434;-75
2022/07/19 12:10:43;;;;;;;7.68;3.05;;;29.40;39.50;;;;;;5097124;28;20027;-75
2022/07/19 12:13:11;;;;;;;;;;;29.70;40.20;;;;;;5076194;28;20039;-73
2022/07/19 12:15:52;;;;;;;5.60;2.75;;;29.60;39.20;;;;;;5090854;28;19908;-76
2022/07/19 12:18:42;;;;;;;5.28;3.00;;;29.60;39.00;;;;;;5087341;28;20037;-77
2022/07/19 12:21:34;;;;;;;5.35;2.95;;;29.80;39.50;;;;;;5118250;27;20039;-77
2022/07/19 12:24:12;;;;;;;5.50;2.17;;;29.90;38.30;;;;;;5127159;27;20035;-77
2022/07/19 12:26:54;;;;;;;7.68;2.80;;;29.80;36.90;;;;;;5122622;27;20031;-73
2022/07/19 12:29:46;;;;;;;3.15;2.60;;;29.80;38.10;;;;;;5113965;27;20572;-77
2022/07/19 12:32:30;;;;;;;4.68;2.90;;;29.70;38.00;;;;;;5132468;27;20039;-73
2022/07/19 12:35:13;;;;;;;4.18;2.40;;;29.80;39.70;;;;;;5120251;27;20039;-73
2022/07/19 12:37:45;;;;;;;4.32;2.58;;;29.90;38.20;;;;;;5116475;27;20062;-77
2022/07/19 12:40:14;;;;;;;5.03;2.65;;;30.00;39.40;;;;;;5123587;27;20035;-77
2022/07/19 12:42:59;;;;;;;7.93;2.58;;;29.80;38.50;;;;;;5119767;27;20038;-77
2022/07/19 12:45:28;;;;;;;5.25;2.50;;;29.80;39.60;;;;;;5115081;27;20031;-77
2022/07/19 12:47:59;;;;;;;3.17;2.28;;;29.80;38.60;;;;;;5132084;27;20066;-73
2022/07/19 12:50:30;;;;;;;5.32;2.65;;;29.80;38.40;;;;;;5116829;27;20044;-74
2022/07/19 12:53:02;;;;;;;3.03;2.08;;;29.90;39.00;;;;;;5116025;27;20073;-73
2022/07/19 12:55:35;;;;;;;9.38;2.95;;;29.90;39.60;;;;;;5036833;28;20028;-73
2022/07/19 12:58:03;;;;;;;3.70;2.20;;;29.80;38.80;;;;;;5054172;27;20561;-73
2022/07/19 13:00:31;;;;;;;4.68;2.60;;;29.70;38.40;;;;;;5098260;27;20057;-73
2022/07/19 13:02:58;;;;;;;5.63;3.53;;;30.00;39.30;;;;;;5128389;27;20472;-72
2022/07/19 13:05:28;;;;;;;2.72;2.35;;;30.10;38.10;;;;;;5068080;27;20021;-77
2022/07/19 13:07:55;;;;;;;3.63;2.15;;;30.20;37.50;;;;;;5123172;27;20062;-76
2022/07/19 13:10:23;;;;;;;3.42;2.50;;;30.30;38.80;;;;;;5125828;27;20023;-73
2022/07/19 13:12:50;;;;;;;2.90;2.60;;;30.40;39.70;;;;;;5083478;27;20093;-73
2022/07/19 13:15:26;;;;;;;4.95;3.28;;;30.50;38.90;;;;;;5062454;27;20029;-77
2022/07/19 13:17:59;;;;;;;4.15;2.53;;;30.50;39.80;;;;;;5110985;27;20417;-77
2022/07/19 13:20:29;;;;;;;3.78;2.72;;;30.40;38.90;;;;;;5071409;27;20041;-77
2022/07/19 13:22:55;;;;;;;4.00;3.03;;;30.40;39.10;;;;;;5051315;27;20506;-76
2022/07/19 13:25:21;;;;;;;4.15;2.47;;;30.30;39.10;;;;;;5130121;27;20102;-75
2022/07/19 13:27:48;;;;;;;3.17;2.67;;;30.30;39.10;;;;;;5063425;27;20512;-73
2022/07/19 13:30:15;;;;;;;3.97;2.40;;;30.30;38.60;;;;;;5058777;27;20037;-73
2022/07/19 13:32:48;;;;;;;3.25;2.70;;;30.20;38.50;;;;;;5066278;27;20061;-73
2022/07/19 13:35:14;;;;;;;5.30;2.72;;;30.30;38.60;;;;;;5136797;27;20400;-73
2022/07/19 13:37:39;;;;;;;2.78;2.58;;;30.50;38.80;;;;;;5072109;27;20021;-77
2022/07/19 13:40:06;;;;;;;5.97;2.88;;;30.50;39.60;;;;;;5052831;27;20121;-78
2022/07/19 13:42:34;;;;;;;5.47;2.40;;;30.50;38.80;;;;;;5058576;27;20086;-73
2022/07/19 13:45:00;;;;;;;5.32;2.65;;;30.50;38.90;;;;;;5133409;27;20509;-73
2022/07/19 13:47:26;;;;;;;3.67;2.42;;;30.60;40.40;;;;;;5133150;27;20019;-78
2022/07/19 13:49:53;;;;;;;4.70;2.83;;;30.60;39.50;;;;;;5106869;27;20068;-78
2022/07/19 13:52:19;;;;;;;3.70;2.72;;;30.60;38.90;;;;;;5131852;27;20513;-77
2022/07/19 13:54:56;;;;;;;5.28;2.55;;;30.50;37.40;;;;;;5075776;27;20117;-77
2022/07/19 13:57:23;;;;;;;7.78;2.70;;;30.50;38.30;;;;;;5118228;27;20547;-78
2022/07/19 13:59:49;;;;;;;4.55;2.65;;;30.50;39.00;;;;;;5110853;27;20479;-78
2022/07/19 14:02:16;;;;;;;3.15;2.20;;;30.50;39.20;;;;;;5129716;27;20034;-78
2022/07/19 14:04:42;;;;;;;2.97;2.42;;;30.50;38.50;;;;;;5133009;27;20058;-78
2022/07/19 14:07:09;;;;;;;5.43;2.92;;;30.60;39.10;;;;;;5075560;27;20097;-78
2022/07/19 14:09:37;;;;;;;3.55;2.80;;;30.60;38.60;;;;;;5117086;27;20035;-77
2022/07/19 14:12:04;;;;;;;3.20;2.42;;;30.50;38.50;;;;;;5061840;27;20022;-78
2022/07/19 14:14:45;;;;;;;4.43;2.33;;;30.60;40.00;;;;;;5123058;27;20038;-77
2022/07/19 14:17:11;;;;;;;4.63;2.40;;;30.70;39.60;;;;;;5112231;27;20034;-73
2022/07/19 14:19:39;;;;;;;4.20;2.47;;;30.80;39.90;;;;;;5075986;27;20026;-73